sensor_id;sensor_type;location;lat;lon;timestamp;P1;durP1;ratioP1;P2;durP2;ratioP2
11964;SDS011;6042;41.326;19.826;2023-09-12T00:01:28;29.70;;;6.27;;
11964;SDS011;6042;41.326;19.826;2023-09-12T00:04:00;11.93;;;4.10;;
11964;SDS011;6042;41.326;19.826;2023-09-12T00:06:29;14.47;;;4.60;;
11964;SDS011;6042;41.326;19.826;2023-09-12T00:08:57;10.10;;;4.00;;
11964;SDS011;6042;41.326;19.826;2023-09-12T00:11:26;10.10;;;4.37;;
11964;SDS011;6042;41.326;19.826;2023-09-12T00:13:55;11.40;;;3.83;;
11964;SDS011;6042;41.326;19.826;2023-09-12T00:16:23;32.30;;;5.27;;
11964;SDS011;6042;41.326;19.826;2023-09-12T00:18:52;16.03;;;4.47;;
11964;SDS011;6042;41.326;19.826;2023-09-12T00:21:21;15.77;;;4.60;;
11964;SDS011;6042;41.326;19.826;2023-09-12T00:23:50;11.07;;;3.63;;
11964;SDS011;6042;41.326;19.826;2023-09-12T00:26:18;16.37;;;5.10;;
11964;SDS011;6042;41.326;19.826;2023-09-12T00:28:48;32.07;;;4.40;;
11964;SDS011;6042;41.326;19.826;2023-09-12T00:31:16;21.10;;;4.10;;
11964;SDS011;6042;41.326;19.826;2023-09-12T00:33:45;14.97;;;3.70;;
11964;SDS011;6042;41.326;19.826;2023-09-12T00:36:13;6.63;;;3.23;;
11964;SDS011;6042;41.326;19.826;2023-09-12T00:38:43;5.87;;;3.07;;
11964;SDS011;6042;41.326;19.826;2023-09-12T00:41:11;17.33;;;3.40;;
11964;SDS011;6042;41.326;19.826;2023-09-12T00:43:40;9.37;;;3.27;;
11964;SDS011;6042;41.326;19.826;2023-09-12T00:46:08;10.20;;;3.30;;
11964;SDS011;6042;41.326;19.826;2023-09-12T00:48:37;5.23;;;2.90;;
11964;SDS011;6042;41.326;19.826;2023-09-12T00:51:07;3.17;;;2.60;;
11964;SDS011;6042;41.326;19.826;2023-09-12T00:53:35;10.27;;;3.23;;
11964;SDS011;6042;41.326;19.826;2023-09-12T00:56:05;8.90;;;3.00;;
11964;SDS011;6042;41.326;19.826;2023-09-12T00:58:34;4.67;;;2.97;;
11964;SDS011;6042;41.326;19.826;2023-09-12T01:01:03;5.70;;;2.40;;
11964;SDS011;6042;41.326;19.826;2023-09-12T01:03:32;3.53;;;2.37;;
11964;SDS011;6042;41.326;19.826;2023-09-12T01:06:02;3.80;;;2.87;;
11964;SDS011;6042;41.326;19.826;2023-09-12T01:08:34;15.57;;;3.23;;
11964;SDS011;6042;41.326;19.826;2023-09-12T01:11:03;31.77;;;4.17;;
11964;SDS011;6042;41.326;19.826;2023-09-12T01:13:33;21.33;;;3.70;;
11964;SDS011;6042;41.326;19.826;2023-09-12T01:16:02;7.90;;;2.80;;
11964;SDS011;6042;41.326;19.826;2023-09-12T01:18:31;7.57;;;3.23;;
11964;SDS011;6042;41.326;19.826;2023-09-12T01:21:22;5.23;;;2.70;;
11964;SDS011;6042;41.326;19.826;2023-09-12T01:24:12;13.17;;;3.57;;
11964;SDS011;6042;41.326;19.826;2023-09-12T01:29:49;5.90;;;2.87;;
11964;SDS011;6042;41.326;19.826;2023-09-12T01:32:21;5.27;;;2.50;;
11964;SDS011;6042;41.326;19.826;2023-09-12T01:34:49;6.97;;;2.60;;
11964;SDS011;6042;41.326;19.826;2023-09-12T01:37:18;11.90;;;3.17;;
11964;SDS011;6042;41.326;19.826;2023-09-12T01:39:46;12.87;;;3.60;;
11964;SDS011;6042;41.326;19.826;2023-09-12T01:42:15;6.27;;;2.60;;
11964;SDS011;6042;41.326;19.826;2023-09-12T01:44:49;3.20;;;2.60;;
11964;SDS011;6042;41.326;19.826;2023-09-12T01:47:21;8.93;;;2.80;;
11964;SDS011;6042;41.326;19.826;2023-09-12T01:49:52;12.73;;;3.17;;
11964;SDS011;6042;41.326;19.826;2023-09-12T01:52:23;28.47;;;5.27;;
11964;SDS011;6042;41.326;19.826;2023-09-12T01:54:52;7.43;;;2.67;;
11964;SDS011;6042;41.326;19.826;2023-09-12T01:57:22;8.30;;;2.50;;
11964;SDS011;6042;41.326;19.826;2023-09-12T01:59:52;4.63;;;2.40;;
11964;SDS011;6042;41.326;19.826;2023-09-12T02:02:21;7.43;;;3.00;;
11964;SDS011;6042;41.326;19.826;2023-09-12T02:04:51;21.13;;;4.20;;
11964;SDS011;6042;41.326;19.826;2023-09-12T02:07:27;7.27;;;2.83;;
11964;SDS011;6042;41.326;19.826;2023-09-12T02:10:00;4.93;;;2.57;;
11964;SDS011;6042;41.326;19.826;2023-09-12T02:12:28;10.07;;;2.70;;
11964;SDS011;6042;41.326;19.826;2023-09-12T02:14:58;9.00;;;2.87;;
11964;SDS011;6042;41.326;19.826;2023-09-12T02:17:27;4.13;;;2.40;;
11964;SDS011;6042;41.326;19.826;2023-09-12T02:19:55;7.77;;;2.67;;
11964;SDS011;6042;41.326;19.826;2023-09-12T02:22:24;13.80;;;3.63;;
11964;SDS011;6042;41.326;19.826;2023-09-12T02:24:52;22.93;;;4.10;;
11964;SDS011;6042;41.326;19.826;2023-09-12T02:27:21;17.60;;;3.40;;
11964;SDS011;6042;41.326;19.826;2023-09-12T02:29:49;25.10;;;4.33;;
11964;SDS011;6042;41.326;19.826;2023-09-12T02:32:19;10.60;;;3.20;;
11964;SDS011;6042;41.326;19.826;2023-09-12T02:34:48;16.83;;;3.13;;
11964;SDS011;6042;41.326;19.826;2023-09-12T02:37:16;13.73;;;3.67;;
11964;SDS011;6042;41.326;19.826;2023-09-12T02:39:45;8.37;;;2.40;;
11964;SDS011;6042;41.326;19.826;2023-09-12T02:42:13;4.00;;;2.73;;
11964;SDS011;6042;41.326;19.826;2023-09-12T02:44:42;4.93;;;2.63;;
11964;SDS011;6042;41.326;19.826;2023-09-12T02:47:10;3.47;;;2.40;;
11964;SDS011;6042;41.326;19.826;2023-09-12T02:49:40;5.80;;;2.63;;
11964;SDS011;6042;41.326;19.826;2023-09-12T02:52:09;3.43;;;2.67;;
11964;SDS011;6042;41.326;19.826;2023-09-12T02:54:37;5.23;;;2.70;;
11964;SDS011;6042;41.326;19.826;2023-09-12T02:57:06;3.80;;;2.70;;
11964;SDS011;6042;41.326;19.826;2023-09-12T02:59:34;4.30;;;2.43;;
11964;SDS011;6042;41.326;19.826;2023-09-12T03:02:03;4.00;;;2.60;;
11964;SDS011;6042;41.326;19.826;2023-09-12T03:04:32;5.73;;;2.37;;
11964;SDS011;6042;41.326;19.826;2023-09-12T03:07:04;7.17;;;3.20;;
11964;SDS011;6042;41.326;19.826;2023-09-12T03:09:33;6.13;;;2.40;;
11964;SDS011;6042;41.326;19.826;2023-09-12T03:12:01;5.30;;;2.70;;
11964;SDS011;6042;41.326;19.826;2023-09-12T03:14:31;5.70;;;2.90;;
11964;SDS011;6042;41.326;19.826;2023-09-12T03:17:00;4.67;;;2.80;;
11964;SDS011;6042;41.326;19.826;2023-09-12T03:19:30;5.33;;;2.47;;
11964;SDS011;6042;41.326;19.826;2023-09-12T03:21:58;4.03;;;2.43;;
11964;SDS011;6042;41.326;19.826;2023-09-12T03:24:28;5.63;;;2.50;;
11964;SDS011;6042;41.326;19.826;2023-09-12T03:26:59;4.20;;;2.23;;
11964;SDS011;6042;41.326;19.826;2023-09-12T03:29:28;4.03;;;2.30;;
11964;SDS011;6042;41.326;19.826;2023-09-12T03:31:56;4.57;;;2.40;;
11964;SDS011;6042;41.326;19.826;2023-09-12T03:34:25;3.67;;;2.60;;
11964;SDS011;6042;41.326;19.826;2023-09-12T03:36:53;2.77;;;2.37;;
11964;SDS011;6042;41.326;19.826;2023-09-12T03:39:22;2.63;;;2.20;;
11964;SDS011;6042;41.326;19.826;2023-09-12T03:41:51;4.23;;;2.57;;
11964;SDS011;6042;41.326;19.826;2023-09-12T03:44:20;11.03;;;2.93;;
11964;SDS011;6042;41.326;19.826;2023-09-12T03:46:48;7.77;;;2.53;;
11964;SDS011;6042;41.326;19.826;2023-09-12T03:49:17;6.57;;;2.97;;
11964;SDS011;6042;41.326;19.826;2023-09-12T03:51:45;3.67;;;2.37;;
11964;SDS011;6042;41.326;19.826;2023-09-12T03:54:14;5.10;;;2.70;;
11964;SDS011;6042;41.326;19.826;2023-09-12T03:56:42;5.27;;;2.73;;
11964;SDS011;6042;41.326;19.826;2023-09-12T03:59:14;8.43;;;2.80;;
11964;SDS011;6042;41.326;19.826;2023-09-12T04:01:42;3.27;;;2.33;;
11964;SDS011;6042;41.326;19.826;2023-09-12T04:04:11;10.03;;;3.50;;
11964;SDS011;6042;41.326;19.826;2023-09-12T04:06:40;3.70;;;2.40;;
11964;SDS011;6042;41.326;19.826;2023-09-12T04:09:08;9.63;;;3.27;;
11964;SDS011;6042;41.326;19.826;2023-09-12T04:11:37;8.93;;;2.97;;
11964;SDS011;6042;41.326;19.826;2023-09-12T04:14:14;3.87;;;2.60;;
11964;SDS011;6042;41.326;19.826;2023-09-12T04:16:43;10.57;;;2.70;;
11964;SDS011;6042;41.326;19.826;2023-09-12T04:19:13;3.87;;;2.80;;
11964;SDS011;6042;41.326;19.826;2023-09-12T04:21:41;8.20;;;3.17;;
11964;SDS011;6042;41.326;19.826;2023-09-12T04:24:10;4.27;;;2.97;;
11964;SDS011;6042;41.326;19.826;2023-09-12T04:26:39;25.73;;;5.00;;
11964;SDS011;6042;41.326;19.826;2023-09-12T04:29:07;9.17;;;3.13;;
11964;SDS011;6042;41.326;19.826;2023-09-12T04:31:37;10.60;;;3.20;;
11964;SDS011;6042;41.326;19.826;2023-09-12T04:34:06;5.33;;;2.73;;
11964;SDS011;6042;41.326;19.826;2023-09-12T04:36:35;5.70;;;2.73;;
11964;SDS011;6042;41.326;19.826;2023-09-12T04:39:03;12.97;;;3.40;;
11964;SDS011;6042;41.326;19.826;2023-09-12T04:41:32;7.00;;;2.57;;
11964;SDS011;6042;41.326;19.826;2023-09-12T04:44:01;8.03;;;2.67;;
11964;SDS011;6042;41.326;19.826;2023-09-12T04:46:29;9.90;;;2.97;;
11964;SDS011;6042;41.326;19.826;2023-09-12T04:48:59;5.30;;;2.60;;
11964;SDS011;6042;41.326;19.826;2023-09-12T04:51:28;7.40;;;2.87;;
11964;SDS011;6042;41.326;19.826;2023-09-12T04:53:56;4.90;;;3.10;;
11964;SDS011;6042;41.326;19.826;2023-09-12T04:56:25;5.00;;;3.30;;
11964;SDS011;6042;41.326;19.826;2023-09-12T04:58:53;5.83;;;2.87;;
11964;SDS011;6042;41.326;19.826;2023-09-12T05:01:21;4.90;;;2.93;;
11964;SDS011;6042;41.326;19.826;2023-09-12T05:03:52;18.00;;;4.47;;
11964;SDS011;6042;41.326;19.826;2023-09-12T05:06:22;9.37;;;3.17;;
11964;SDS011;6042;41.326;19.826;2023-09-12T05:08:51;7.50;;;3.43;;
11964;SDS011;6042;41.326;19.826;2023-09-12T05:11:19;16.90;;;3.83;;
11964;SDS011;6042;41.326;19.826;2023-09-12T05:13:49;15.37;;;3.73;;
11964;SDS011;6042;41.326;19.826;2023-09-12T05:16:19;7.97;;;3.13;;
11964;SDS011;6042;41.326;19.826;2023-09-12T05:18:47;12.27;;;3.23;;
11964;SDS011;6042;41.326;19.826;2023-09-12T05:21:17;6.30;;;3.50;;
11964;SDS011;6042;41.326;19.826;2023-09-12T05:23:47;9.47;;;3.30;;
11964;SDS011;6042;41.326;19.826;2023-09-12T05:26:15;5.50;;;3.07;;
11964;SDS011;6042;41.326;19.826;2023-09-12T05:28:45;10.30;;;2.77;;
11964;SDS011;6042;41.326;19.826;2023-09-12T05:31:14;7.47;;;3.57;;
11964;SDS011;6042;41.326;19.826;2023-09-12T05:33:42;28.67;;;5.63;;
11964;SDS011;6042;41.326;19.826;2023-09-12T05:36:11;16.20;;;3.80;;
11964;SDS011;6042;41.326;19.826;2023-09-12T05:38:39;7.13;;;3.20;;
11964;SDS011;6042;41.326;19.826;2023-09-12T05:41:09;14.77;;;3.83;;
11964;SDS011;6042;41.326;19.826;2023-09-12T05:43:38;16.73;;;4.73;;
11964;SDS011;6042;41.326;19.826;2023-09-12T05:46:07;10.07;;;3.70;;
11964;SDS011;6042;41.326;19.826;2023-09-12T05:48:36;8.77;;;3.17;;
11964;SDS011;6042;41.326;19.826;2023-09-12T05:51:04;16.27;;;4.43;;
11964;SDS011;6042;41.326;19.826;2023-09-12T05:53:33;9.27;;;3.50;;
11964;SDS011;6042;41.326;19.826;2023-09-12T05:56:01;10.03;;;3.03;;
11964;SDS011;6042;41.326;19.826;2023-09-12T05:58:31;17.47;;;4.53;;
11964;SDS011;6042;41.326;19.826;2023-09-12T06:01:01;16.73;;;4.37;;
11964;SDS011;6042;41.326;19.826;2023-09-12T06:03:29;5.37;;;2.80;;
11964;SDS011;6042;41.326;19.826;2023-09-12T06:05:58;10.07;;;3.53;;
11964;SDS011;6042;41.326;19.826;2023-09-12T06:08:26;8.20;;;3.23;;
11964;SDS011;6042;41.326;19.826;2023-09-12T06:10:55;7.83;;;3.10;;
11964;SDS011;6042;41.326;19.826;2023-09-12T06:13:23;7.07;;;3.13;;
11964;SDS011;6042;41.326;19.826;2023-09-12T06:15:53;11.67;;;3.40;;
11964;SDS011;6042;41.326;19.826;2023-09-12T06:18:21;7.73;;;3.27;;
11964;SDS011;6042;41.326;19.826;2023-09-12T06:20:50;12.40;;;3.70;;
11964;SDS011;6042;41.326;19.826;2023-09-12T06:23:19;9.80;;;4.03;;
11964;SDS011;6042;41.326;19.826;2023-09-12T06:25:48;9.07;;;3.40;;
11964;SDS011;6042;41.326;19.826;2023-09-12T06:28:24;8.70;;;3.30;;
11964;SDS011;6042;41.326;19.826;2023-09-12T06:30:54;9.60;;;3.87;;
11964;SDS011;6042;41.326;19.826;2023-09-12T06:33:24;6.00;;;3.50;;
11964;SDS011;6042;41.326;19.826;2023-09-12T06:35:53;10.63;;;3.70;;
11964;SDS011;6042;41.326;19.826;2023-09-12T06:38:22;8.00;;;3.57;;
11964;SDS011;6042;41.326;19.826;2023-09-12T06:40:51;6.17;;;3.43;;
11964;SDS011;6042;41.326;19.826;2023-09-12T06:43:19;12.60;;;4.37;;
11964;SDS011;6042;41.326;19.826;2023-09-12T06:45:47;11.87;;;4.47;;
11964;SDS011;6042;41.326;19.826;2023-09-12T06:48:18;15.30;;;4.03;;
11964;SDS011;6042;41.326;19.826;2023-09-12T06:50:53;14.90;;;3.80;;
11964;SDS011;6042;41.326;19.826;2023-09-12T06:53:22;8.83;;;3.80;;
11964;SDS011;6042;41.326;19.826;2023-09-12T06:55:51;7.13;;;4.00;;
11964;SDS011;6042;41.326;19.826;2023-09-12T06:58:20;15.03;;;3.90;;
11964;SDS011;6042;41.326;19.826;2023-09-12T07:00:49;8.83;;;3.60;;
11964;SDS011;6042;41.326;19.826;2023-09-12T07:03:20;12.27;;;4.10;;
11964;SDS011;6042;41.326;19.826;2023-09-12T07:05:49;12.43;;;4.20;;
11964;SDS011;6042;41.326;19.826;2023-09-12T07:08:17;11.53;;;4.33;;
11964;SDS011;6042;41.326;19.826;2023-09-12T07:10:46;6.07;;;3.80;;
11964;SDS011;6042;41.326;19.826;2023-09-12T07:13:14;10.95;;;3.75;;
11964;SDS011;6042;41.326;19.826;2023-09-12T07:15:50;8.23;;;4.00;;
11964;SDS011;6042;41.326;19.826;2023-09-12T07:18:20;16.13;;;4.87;;
11964;SDS011;6042;41.326;19.826;2023-09-12T07:20:56;10.93;;;5.27;;
11964;SDS011;6042;41.326;19.826;2023-09-12T07:23:25;8.83;;;4.87;;
11964;SDS011;6042;41.326;19.826;2023-09-12T07:25:54;14.70;;;5.67;;
11964;SDS011;6042;41.326;19.826;2023-09-12T07:28:24;18.00;;;5.87;;
11964;SDS011;6042;41.326;19.826;2023-09-12T07:30:53;16.90;;;6.40;;
11964;SDS011;6042;41.326;19.826;2023-09-12T07:33:24;15.17;;;5.47;;
11964;SDS011;6042;41.326;19.826;2023-09-12T07:35:53;10.20;;;5.73;;
11964;SDS011;6042;41.326;19.826;2023-09-12T07:38:22;14.83;;;5.83;;
11964;SDS011;6042;41.326;19.826;2023-09-12T07:40:51;17.93;;;5.83;;
11964;SDS011;6042;41.326;19.826;2023-09-12T07:43:20;16.73;;;5.83;;
11964;SDS011;6042;41.326;19.826;2023-09-12T07:45:49;19.10;;;5.77;;
11964;SDS011;6042;41.326;19.826;2023-09-12T07:48:22;18.70;;;5.90;;
11964;SDS011;6042;41.326;19.826;2023-09-12T07:50:53;16.53;;;6.33;;
11964;SDS011;6042;41.326;19.826;2023-09-12T07:53:22;12.75;;;5.63;;
11964;SDS011;6042;41.326;19.826;2023-09-12T07:55:51;24.83;;;6.00;;
11964;SDS011;6042;41.326;19.826;2023-09-12T07:58:34;12.90;;;4.55;;
11964;SDS011;6042;41.326;19.826;2023-09-12T08:03:45;14.23;;;5.57;;
11964;SDS011;6042;41.326;19.826;2023-09-12T08:06:15;10.77;;;5.53;;
11964;SDS011;6042;41.326;19.826;2023-09-12T08:08:44;14.57;;;4.78;;
11964;SDS011;6042;41.326;19.826;2023-09-12T08:11:13;15.30;;;5.18;;
11964;SDS011;6042;41.326;19.826;2023-09-12T08:13:41;12.90;;;5.40;;
11964;SDS011;6042;41.326;19.826;2023-09-12T08:16:10;15.48;;;5.57;;
11964;SDS011;6042;41.326;19.826;2023-09-12T08:18:39;14.52;;;5.63;;
11964;SDS011;6042;41.326;19.826;2023-09-12T08:21:09;13.63;;;5.13;;
11964;SDS011;6042;41.326;19.826;2023-09-12T08:23:38;13.02;;;4.75;;
11964;SDS011;6042;41.326;19.826;2023-09-12T08:26:07;9.80;;;5.93;;
11964;SDS011;6042;41.326;19.826;2023-09-12T08:28:37;16.83;;;5.93;;
11964;SDS011;6042;41.326;19.826;2023-09-12T08:31:06;10.25;;;5.75;;
11964;SDS011;6042;41.326;19.826;2023-09-12T08:33:34;16.67;;;6.20;;
11964;SDS011;6042;41.326;19.826;2023-09-12T08:36:03;11.82;;;4.90;;
11964;SDS011;6042;41.326;19.826;2023-09-12T08:38:33;11.68;;;5.78;;
11964;SDS011;6042;41.326;19.826;2023-09-12T08:41:02;6.90;;;5.60;;
11964;SDS011;6042;41.326;19.826;2023-09-12T08:43:31;14.23;;;8.00;;
11964;SDS011;6042;41.326;19.826;2023-09-12T08:46:00;12.50;;;6.32;;
11964;SDS011;6042;41.326;19.826;2023-09-12T08:48:28;14.02;;;6.40;;
11964;SDS011;6042;41.326;19.826;2023-09-12T08:50:58;13.77;;;6.22;;
11964;SDS011;6042;41.326;19.826;2023-09-12T08:53:28;13.18;;;6.90;;
11964;SDS011;6042;41.326;19.826;2023-09-12T08:55:58;12.65;;;6.88;;
11964;SDS011;6042;41.326;19.826;2023-09-12T08:58:30;11.00;;;6.25;;
11964;SDS011;6042;41.326;19.826;2023-09-12T09:00:59;10.80;;;6.22;;
11964;SDS011;6042;41.326;19.826;2023-09-12T09:03:29;12.80;;;6.10;;
11964;SDS011;6042;41.326;19.826;2023-09-12T09:05:59;8.27;;;5.28;;
11964;SDS011;6042;41.326;19.826;2023-09-12T09:08:29;11.60;;;5.28;;
11964;SDS011;6042;41.326;19.826;2023-09-12T09:11:00;7.32;;;4.63;;
11964;SDS011;6042;41.326;19.826;2023-09-12T09:13:30;11.55;;;5.10;;
11964;SDS011;6042;41.326;19.826;2023-09-12T09:16:11;10.82;;;5.55;;
11964;SDS011;6042;41.326;19.826;2023-09-12T09:18:50;9.07;;;4.90;;
11964;SDS011;6042;41.326;19.826;2023-09-12T09:21:25;13.57;;;5.05;;
11964;SDS011;6042;41.326;19.826;2023-09-12T09:23:54;10.48;;;5.75;;
11964;SDS011;6042;41.326;19.826;2023-09-12T09:26:25;8.65;;;4.63;;
11964;SDS011;6042;41.326;19.826;2023-09-12T09:29:01;7.38;;;4.18;;
11964;SDS011;6042;41.326;19.826;2023-09-12T09:31:31;8.05;;;4.60;;
11964;SDS011;6042;41.326;19.826;2023-09-12T09:34:01;5.50;;;4.25;;
11964;SDS011;6042;41.326;19.826;2023-09-12T09:36:31;7.85;;;4.00;;
11964;SDS011;6042;41.326;19.826;2023-09-12T09:39:00;5.32;;;3.90;;
11964;SDS011;6042;41.326;19.826;2023-09-12T09:41:33;8.95;;;4.13;;
11964;SDS011;6042;41.326;19.826;2023-09-12T09:44:02;5.07;;;3.80;;
11964;SDS011;6042;41.326;19.826;2023-09-12T09:46:31;10.60;;;3.70;;
11964;SDS011;6042;41.326;19.826;2023-09-12T09:48:59;9.10;;;4.25;;
11964;SDS011;6042;41.326;19.826;2023-09-12T09:51:29;8.40;;;4.25;;
11964;SDS011;6042;41.326;19.826;2023-09-12T09:53:59;7.13;;;3.65;;
11964;SDS011;6042;41.326;19.826;2023-09-12T09:56:28;7.07;;;4.20;;
11964;SDS011;6042;41.326;19.826;2023-09-12T09:59:00;7.43;;;4.47;;
11964;SDS011;6042;41.326;19.826;2023-09-12T10:01:29;8.23;;;4.25;;
11964;SDS011;6042;41.326;19.826;2023-09-12T10:03:59;6.80;;;3.92;;
11964;SDS011;6042;41.326;19.826;2023-09-12T10:06:29;8.55;;;4.40;;
11964;SDS011;6042;41.326;19.826;2023-09-12T10:09:05;6.57;;;4.40;;
11964;SDS011;6042;41.326;19.826;2023-09-12T10:11:35;6.90;;;4.07;;
11964;SDS011;6042;41.326;19.826;2023-09-12T10:14:09;7.18;;;4.30;;
11964;SDS011;6042;41.326;19.826;2023-09-12T10:16:42;8.23;;;4.20;;
11964;SDS011;6042;41.326;19.826;2023-09-12T10:19:15;6.45;;;3.83;;
11964;SDS011;6042;41.326;19.826;2023-09-12T10:21:46;7.40;;;4.07;;
11964;SDS011;6042;41.326;19.826;2023-09-12T10:24:17;9.57;;;4.50;;
11964;SDS011;6042;41.326;19.826;2023-09-12T10:26:48;7.05;;;4.15;;
11964;SDS011;6042;41.326;19.826;2023-09-12T10:29:20;8.90;;;3.55;;
11964;SDS011;6042;41.326;19.826;2023-09-12T10:31:49;17.40;;;6.47;;
11964;SDS011;6042;41.326;19.826;2023-09-12T10:34:18;7.45;;;4.32;;
11964;SDS011;6042;41.326;19.826;2023-09-12T10:36:47;8.07;;;3.53;;
11964;SDS011;6042;41.326;19.826;2023-09-12T10:39:18;8.48;;;3.60;;
11964;SDS011;6042;41.326;19.826;2023-09-12T10:41:47;11.05;;;4.20;;
11964;SDS011;6042;41.326;19.826;2023-09-12T10:44:21;19.98;;;6.13;;
11964;SDS011;6042;41.326;19.826;2023-09-12T10:46:51;10.65;;;4.70;;
11964;SDS011;6042;41.326;19.826;2023-09-12T10:49:21;7.35;;;3.95;;
11964;SDS011;6042;41.326;19.826;2023-09-12T10:51:53;9.93;;;4.60;;
11964;SDS011;6042;41.326;19.826;2023-09-12T10:54:25;6.30;;;4.07;;
11964;SDS011;6042;41.326;19.826;2023-09-12T10:57:04;6.30;;;3.80;;
11964;SDS011;6042;41.326;19.826;2023-09-12T10:59:35;9.13;;;4.13;;
11964;SDS011;6042;41.326;19.826;2023-09-12T11:04:58;6.03;;;3.75;;
11964;SDS011;6042;41.326;19.826;2023-09-12T11:07:31;7.85;;;4.70;;
11964;SDS011;6042;41.326;19.826;2023-09-12T11:10:21;9.02;;;3.90;;
11964;SDS011;6042;41.326;19.826;2023-09-12T11:12:50;10.23;;;3.80;;
11964;SDS011;6042;41.326;19.826;2023-09-12T11:15:22;6.85;;;3.35;;
11964;SDS011;6042;41.326;19.826;2023-09-12T11:17:59;8.07;;;3.83;;
11964;SDS011;6042;41.326;19.826;2023-09-12T11:23:20;6.43;;;3.63;;
11964;SDS011;6042;41.326;19.826;2023-09-12T11:26:01;8.38;;;4.00;;
11964;SDS011;6042;41.326;19.826;2023-09-12T11:28:32;7.78;;;4.25;;
11964;SDS011;6042;41.326;19.826;2023-09-12T11:31:02;7.22;;;4.35;;
11964;SDS011;6042;41.326;19.826;2023-09-12T11:33:33;7.72;;;4.25;;
11964;SDS011;6042;41.326;19.826;2023-09-12T11:36:01;9.60;;;4.22;;
11964;SDS011;6042;41.326;19.826;2023-09-12T11:38:37;6.65;;;4.18;;
11964;SDS011;6042;41.326;19.826;2023-09-12T11:41:06;13.57;;;4.95;;
11964;SDS011;6042;41.326;19.826;2023-09-12T11:43:34;7.70;;;5.53;;
11964;SDS011;6042;41.326;19.826;2023-09-12T11:46:08;10.57;;;5.65;;
11964;SDS011;6042;41.326;19.826;2023-09-12T11:48:40;6.80;;;5.20;;
11964;SDS011;6042;41.326;19.826;2023-09-12T11:51:09;8.48;;;5.15;;
11964;SDS011;6042;41.326;19.826;2023-09-12T11:53:38;8.43;;;5.10;;
11964;SDS011;6042;41.326;19.826;2023-09-12T11:56:08;7.65;;;5.60;;
11964;SDS011;6042;41.326;19.826;2023-09-12T11:58:37;7.32;;;5.25;;
11964;SDS011;6042;41.326;19.826;2023-09-12T12:01:07;12.35;;;7.22;;
11964;SDS011;6042;41.326;19.826;2023-09-12T12:03:41;10.40;;;5.82;;
11964;SDS011;6042;41.326;19.826;2023-09-12T12:06:10;8.77;;;5.95;;
11964;SDS011;6042;41.326;19.826;2023-09-12T12:08:38;11.38;;;5.43;;
11964;SDS011;6042;41.326;19.826;2023-09-12T12:11:08;9.05;;;6.10;;
11964;SDS011;6042;41.326;19.826;2023-09-12T12:13:37;9.60;;;6.00;;
11964;SDS011;6042;41.326;19.826;2023-09-12T12:16:18;8.18;;;5.38;;
11964;SDS011;6042;41.326;19.826;2023-09-12T12:18:47;9.48;;;5.32;;
11964;SDS011;6042;41.326;19.826;2023-09-12T12:21:21;8.98;;;5.53;;
11964;SDS011;6042;41.326;19.826;2023-09-12T12:23:57;8.50;;;5.35;;
11964;SDS011;6042;41.326;19.826;2023-09-12T12:26:26;9.52;;;5.38;;
11964;SDS011;6042;41.326;19.826;2023-09-12T12:28:55;8.70;;;5.72;;
11964;SDS011;6042;41.326;19.826;2023-09-12T12:31:25;10.55;;;5.13;;
11964;SDS011;6042;41.326;19.826;2023-09-12T12:33:58;8.38;;;5.63;;
11964;SDS011;6042;41.326;19.826;2023-09-12T12:36:46;10.27;;;4.88;;
11964;SDS011;6042;41.326;19.826;2023-09-12T12:39:23;11.95;;;5.10;;
11964;SDS011;6042;41.326;19.826;2023-09-12T12:41:52;7.70;;;5.32;;
11964;SDS011;6042;41.326;19.826;2023-09-12T12:44:21;5.93;;;5.28;;
11964;SDS011;6042;41.326;19.826;2023-09-12T12:46:51;9.88;;;5.43;;
11964;SDS011;6042;41.326;19.826;2023-09-12T12:49:21;7.15;;;4.60;;
11964;SDS011;6042;41.326;19.826;2023-09-12T12:51:50;7.88;;;4.70;;
11964;SDS011;6042;41.326;19.826;2023-09-12T12:54:23;9.35;;;5.03;;
11964;SDS011;6042;41.326;19.826;2023-09-12T12:56:52;13.85;;;5.20;;
11964;SDS011;6042;41.326;19.826;2023-09-12T12:59:20;9.20;;;5.00;;
11964;SDS011;6042;41.326;19.826;2023-09-12T13:01:50;12.38;;;5.10;;
11964;SDS011;6042;41.326;19.826;2023-09-12T13:04:21;7.70;;;4.60;;
11964;SDS011;6042;41.326;19.826;2023-09-12T13:06:51;6.80;;;4.70;;
11964;SDS011;6042;41.326;19.826;2023-09-12T13:09:20;5.65;;;4.63;;
11964;SDS011;6042;41.326;19.826;2023-09-12T13:11:49;8.70;;;4.63;;
11964;SDS011;6042;41.326;19.826;2023-09-12T13:14:17;8.48;;;4.65;;
11964;SDS011;6042;41.326;19.826;2023-09-12T13:16:46;11.15;;;4.72;;
11964;SDS011;6042;41.326;19.826;2023-09-12T13:19:17;6.75;;;4.78;;
11964;SDS011;6042;41.326;19.826;2023-09-12T13:21:45;9.18;;;4.13;;
11964;SDS011;6042;41.326;19.826;2023-09-12T13:24:15;9.52;;;4.80;;
11964;SDS011;6042;41.326;19.826;2023-09-12T13:26:43;5.28;;;4.50;;
11964;SDS011;6042;41.326;19.826;2023-09-12T13:29:12;8.05;;;5.18;;
11964;SDS011;6042;41.326;19.826;2023-09-12T13:31:40;7.72;;;4.45;;
11964;SDS011;6042;41.326;19.826;2023-09-12T13:34:09;8.35;;;4.55;;
11964;SDS011;6042;41.326;19.826;2023-09-12T13:36:39;8.45;;;4.40;;
11964;SDS011;6042;41.326;19.826;2023-09-12T13:39:10;7.82;;;4.40;;
11964;SDS011;6042;41.326;19.826;2023-09-12T13:41:39;6.82;;;4.50;;
11964;SDS011;6042;41.326;19.826;2023-09-12T13:44:09;11.20;;;4.57;;
11964;SDS011;6042;41.326;19.826;2023-09-12T13:46:38;7.15;;;4.40;;
11964;SDS011;6042;41.326;19.826;2023-09-12T13:49:07;8.10;;;3.97;;
11964;SDS011;6042;41.326;19.826;2023-09-12T13:51:35;7.05;;;4.47;;
11964;SDS011;6042;41.326;19.826;2023-09-12T13:54:05;5.20;;;4.22;;
11964;SDS011;6042;41.326;19.826;2023-09-12T13:56:41;5.40;;;3.88;;
11964;SDS011;6042;41.326;19.826;2023-09-12T13:59:09;6.68;;;3.92;;
11964;SDS011;6042;41.326;19.826;2023-09-12T14:01:38;6.07;;;4.00;;
11964;SDS011;6042;41.326;19.826;2023-09-12T14:04:08;7.22;;;4.30;;
11964;SDS011;6042;41.326;19.826;2023-09-12T14:06:37;6.40;;;4.10;;
11964;SDS011;6042;41.326;19.826;2023-09-12T14:09:08;6.80;;;3.83;;
11964;SDS011;6042;41.326;19.826;2023-09-12T14:11:37;8.63;;;4.35;;
11964;SDS011;6042;41.326;19.826;2023-09-12T14:14:06;6.47;;;4.45;;
11964;SDS011;6042;41.326;19.826;2023-09-12T14:16:42;6.30;;;4.68;;
11964;SDS011;6042;41.326;19.826;2023-09-12T14:19:15;9.35;;;4.40;;
11964;SDS011;6042;41.326;19.826;2023-09-12T14:21:44;6.13;;;4.13;;
11964;SDS011;6042;41.326;19.826;2023-09-12T14:24:16;7.03;;;4.22;;
11964;SDS011;6042;41.326;19.826;2023-09-12T14:26:47;7.30;;;4.30;;
11964;SDS011;6042;41.326;19.826;2023-09-12T14:29:18;7.57;;;4.72;;
11964;SDS011;6042;41.326;19.826;2023-09-12T14:31:49;7.55;;;4.00;;
11964;SDS011;6042;41.326;19.826;2023-09-12T14:34:24;5.97;;;3.78;;
11964;SDS011;6042;41.326;19.826;2023-09-12T14:36:54;5.72;;;4.28;;
11964;SDS011;6042;41.326;19.826;2023-09-12T14:39:24;11.50;;;5.70;;
11964;SDS011;6042;41.326;19.826;2023-09-12T14:41:53;9.20;;;4.20;;
11964;SDS011;6042;41.326;19.826;2023-09-12T14:44:24;9.05;;;4.35;;
11964;SDS011;6042;41.326;19.826;2023-09-12T14:46:53;8.57;;;4.40;;
11964;SDS011;6042;41.326;19.826;2023-09-12T14:49:22;7.28;;;3.75;;
11964;SDS011;6042;41.326;19.826;2023-09-12T14:51:51;6.35;;;4.15;;
11964;SDS011;6042;41.326;19.826;2023-09-12T14:54:20;8.45;;;3.63;;
11964;SDS011;6042;41.326;19.826;2023-09-12T14:56:52;9.07;;;3.85;;
11964;SDS011;6042;41.326;19.826;2023-09-12T14:59:20;8.35;;;3.90;;
11964;SDS011;6042;41.326;19.826;2023-09-12T15:01:49;10.13;;;4.38;;
11964;SDS011;6042;41.326;19.826;2023-09-12T15:04:18;7.80;;;4.35;;
11964;SDS011;6042;41.326;19.826;2023-09-12T15:06:47;9.20;;;4.50;;
11964;SDS011;6042;41.326;19.826;2023-09-12T15:09:15;7.03;;;4.25;;
11964;SDS011;6042;41.326;19.826;2023-09-12T15:11:46;9.13;;;4.32;;